Aérodrome :
LOGIN :

S'inscrire | Disclaimer

   EN    FR    IT 

 










Légende :    VFR   VFR Marginal   IFR   IFR Intensif   IFR Très Intensif
Visi : 
Plafond : 
>= 8 km
>= 3000ft
5 à 8 km
1000 à 3000 ft
1500m à 5 km
500 à 1000 ft
800 à 1500m
200 à 500 ft
< 800m
< 200 ft
Symboles :   Orages  Brouillard  Fortes neiges  Fortes précipitations  Vent > 20 kt
SIGMETs :   Divers  Orages  Givrage  Turbulence  Onde Orograph.  Cendres Volcan.







- Altitude de l'aérodrome : 306 ft
- Code IATA : EMA
- Voir les cartes d'approche


EGNX - Nottingham East Midlands

DERNIER METAR :
  • 270450Z 23013KT 9999 FEW030 SCT045 10/07 Q1009

METARs EXPIRÉS :
  • 270420Z 23013KT 9999 FEW035 10/07 Q1009
  • 270350Z 23011KT 9999 FEW033 09/07 Q1009
  • 270320Z 23011KT 9999 FEW045 09/07 Q1009
  • 270250Z 23009KT CAVOK 09/07 Q1009
  • 270220Z 24010KT CAVOK 09/07 Q1010

TAF TAF EGNX
Valide du 27 à 00h jusqu'au 28 à 00h UTC


262254Z 2700/2724 24008KT 9999 FEW030
TEMPO 2709/2722 30017G27KT 7000 SHRA
PROB30
TEMPO 2714/2721 4000 +SHRA BKN014 BKN030CB
ATIS : +44 1332 852 852 (ext 3201)
Pas de NOTAMs connus pour ce terrain.



MET'MAP, la Météo Aéronautique d'un coup d'oeil ! - Copyright ORBIFLY Décembre 2007 - Disclaimer

ORBIFLY MET'MAP TEAM :

Programmation & Développement : Alexandra Zaïnal
Conception & Développement : Baudouin d'Aumeries
Co-Programmation & Développement : Marc-Olivier Méhu
Soutien technique & logistique : Manuel Goepfert

Contact : metmap@orbifly.com




SOURCES & CREDITS :

   NOAA